Time;durP1;ratioP1;P1;durP2;ratioP2;P2;SDS_P1;SDS_P2;PMS_P1;PMS_P2;Temp;Humidity;BMP_temperature;BMP_pressure;BME280_temperature;BME280_humidity;BME280_pressure;Samples;Min_cycle;Max_cycle;Signal;HPM_P1;HPM_P2
2022/12/27 00:01:11;;;;;;;3.60;1.20;;;6.40;99.90;;;;;;5031083;28;20184;-75
2022/12/27 00:03:36;;;;;;;2.60;1.15;;;6.40;99.90;;;;;;5048323;28;20642;-75
2022/12/27 00:06:07;;;;;;;2.90;1.50;;;6.40;99.90;;;;;;5031044;28;20516;-75
2022/12/27 00:08:33;;;;;;;5.90;1.10;;;6.40;99.90;;;;;;5030933;28;20203;-75
2022/12/27 00:11:04;;;;;;;2.80;1.00;;;6.40;99.90;;;;;;5031156;28;20165;-75
2022/12/27 00:13:30;;;;;;;5.40;1.10;;;6.40;99.90;;;;;;5048288;28;20659;-75
2022/12/27 00:16:11;;;;;;;3.35;1.00;;;6.40;99.90;;;;;;5049708;28;20176;-75
2022/12/27 00:18:38;;;;;;;3.97;0.98;;;6.40;99.90;;;;;;5053697;28;20591;-75
2022/12/27 00:21:05;;;;;;;3.65;0.90;;;6.40;99.90;;;;;;5035006;28;20168;-75
2022/12/27 00:23:37;;;;;;;2.63;0.98;;;6.40;99.90;;;;;;5052408;28;20188;-74
2022/12/27 00:26:05;;;;;;;2.95;0.85;;;6.40;99.90;;;;;;5052694;28;20180;-74
2022/12/27 00:28:31;;;;;;;2.67;0.80;;;6.40;99.90;;;;;;5035187;28;20284;-75
2022/12/27 00:30:59;;;;;;;4.35;1.17;;;6.30;99.90;;;;;;5052752;28;20161;-74
2022/12/27 00:33:26;;;;;;;2.78;0.75;;;6.30;99.90;;;;;;5033773;28;20200;-75
2022/12/27 00:35:52;;;;;;;2.00;0.73;;;6.30;99.90;;;;;;5034624;28;20172;-75
2022/12/27 00:38:18;;;;;;;2.53;1.20;;;6.30;99.90;;;;;;5034919;28;20720;-74
2022/12/27 00:40:44;;;;;;;3.05;0.80;;;6.30;99.90;;;;;;5034667;28;20576;-75
2022/12/27 00:43:10;;;;;;;2.70;1.63;;;6.20;99.90;;;;;;5050659;28;20189;-74
2022/12/27 00:45:36;;;;;;;7.00;1.23;;;6.20;99.90;;;;;;5018276;28;20579;-75
2022/12/27 00:48:02;;;;;;;2.17;0.70;;;6.20;99.90;;;;;;5034531;28;20191;-75
2022/12/27 00:50:27;;;;;;;2.30;1.13;;;6.20;99.90;;;;;;5034336;28;20603;-75
2022/12/27 00:52:53;;;;;;;2.53;1.07;;;6.10;99.90;;;;;;5033789;28;20681;-75
2022/12/27 00:55:18;;;;;;;4.57;0.93;;;6.10;99.90;;;;;;5019064;28;20192;-75
2022/12/27 00:57:44;;;;;;;2.60;1.10;;;6.10;99.90;;;;;;5051904;28;20207;-75
2022/12/27 01:00:11;;;;;;;2.33;1.10;;;6.10;99.90;;;;;;5034685;28;20529;-75
2022/12/27 01:02:37;;;;;;;4.70;1.13;;;6.10;99.90;;;;;;5051083;28;20628;-75
2022/12/27 01:05:03;;;;;;;3.70;1.13;;;6.00;99.90;;;;;;5060034;28;20192;-75
2022/12/27 01:07:29;;;;;;;5.30;0.80;;;6.00;99.90;;;;;;5064708;28;20663;-75
2022/12/27 01:09:54;;;;;;;2.03;1.07;;;6.00;99.90;;;;;;5054146;28;20672;-75
2022/12/27 01:12:20;;;;;;;2.73;1.00;;;6.00;99.90;;;;;;5060971;28;20212;-75
2022/12/27 01:14:46;;;;;;;3.90;0.80;;;5.90;99.90;;;;;;5034264;28;20196;-75
2022/12/27 01:17:11;;;;;;;2.00;0.80;;;6.00;99.90;;;;;;5051693;28;20200;-75
2022/12/27 01:19:38;;;;;;;6.70;1.00;;;5.90;99.90;;;;;;5052040;28;20745;-75
2022/12/27 01:22:04;;;;;;;4.65;0.90;;;6.00;99.90;;;;;;5051082;28;20180;-75
2022/12/27 01:24:31;;;;;;;2.22;0.80;;;6.00;99.90;;;;;;5034050;28;20220;-75
2022/12/27 01:26:57;;;;;;;5.72;1.20;;;6.00;99.90;;;;;;5033728;28;20534;-75
2022/12/27 01:29:22;;;;;;;5.03;1.60;;;6.00;99.90;;;;;;5034181;28;20280;-75
2022/12/27 01:31:48;;;;;;;2.90;1.17;;;6.00;99.90;;;;;;5050980;28;20705;-75
2022/12/27 01:34:15;;;;;;;4.63;1.10;;;6.00;99.90;;;;;;5054330;28;20612;-75
2022/12/27 01:36:41;;;;;;;3.55;1.02;;;6.00;99.90;;;;;;5033798;28;20193;-75
2022/12/27 01:39:10;;;;;;;3.17;0.80;;;6.00;99.90;;;;;;5051594;28;20181;-75
2022/12/27 01:44:37;;;;;;;4.40;0.90;;;6.00;99.90;;;;;;5033403;28;20204;-75
2022/12/27 01:47:16;;;;;;;2.78;0.80;;;6.00;99.90;;;;;;5033523;28;20173;-75
2022/12/27 01:50:07;;;;;;;2.80;0.80;;;6.00;99.90;;;;;;5017017;28;20660;-75
2022/12/27 01:52:55;;;;;;;3.40;0.95;;;6.00;99.90;;;;;;5016344;28;20177;-75
2022/12/27 01:55:25;;;;;;;1.75;0.80;;;6.00;99.90;;;;;;5033292;28;20258;-75
2022/12/27 01:57:54;;;;;;;1.92;1.00;;;6.00;99.90;;;;;;5033333;28;20295;-75
2022/12/27 02:00:20;;;;;;;1.80;0.70;;;6.00;99.90;;;;;;5050701;28;20243;-75
2022/12/27 02:02:46;;;;;;;2.83;0.87;;;6.10;99.90;;;;;;5055912;28;20637;-75
2022/12/27 02:05:15;;;;;;;4.22;1.10;;;6.10;99.90;;;;;;5042266;28;20981;-75
2022/12/27 02:07:53;;;;;;;2.17;1.08;;;6.10;99.90;;;;;;5014839;28;20180;-74
2022/12/27 02:10:20;;;;;;;1.95;1.00;;;6.10;99.90;;;;;;5002127;28;20205;-75
2022/12/27 02:12:46;;;;;;;3.55;0.95;;;6.10;99.90;;;;;;5012865;28;20170;-75
2022/12/27 02:15:11;;;;;;;1.30;0.70;;;6.10;99.90;;;;;;5012894;28;20553;-75
2022/12/27 02:17:37;;;;;;;2.23;0.90;;;6.10;99.90;;;;;;4996971;28;20684;-75
2022/12/27 02:20:20;;;;;;;2.40;0.80;;;6.10;99.90;;;;;;5013156;28;20272;-75
2022/12/27 02:26:08;;;;;;;5.50;1.00;;;6.10;99.90;;;;;;5012850;28;20177;-74
2022/12/27 02:29:03;;;;;;;4.05;0.70;;;6.10;99.90;;;;;;5013179;28;20226;-74
2022/12/27 02:31:40;;;;;;;1.75;0.80;;;6.10;99.90;;;;;;5012324;28;20197;-74
2022/12/27 02:34:13;;;;;;;2.58;0.80;;;6.10;99.90;;;;;;5021918;28;20193;-74
2022/12/27 02:36:40;;;;;;;4.97;0.80;;;6.10;99.90;;;;;;5023831;28;20208;-74
2022/12/27 02:39:09;;;;;;;5.43;0.98;;;6.10;99.90;;;;;;5044764;28;20181;-74
2022/12/27 02:53:14;;;;;;;4.32;0.98;;;6.10;99.90;;;;;;5039271;28;20657;-74
2022/12/27 02:58:54;;;;;;;3.97;0.73;;;6.10;99.90;;;;;;5015407;28;20216;-73
2022/12/27 03:04:58;;;;;;;3.70;0.90;;;6.20;99.90;;;;;;5049985;28;20374;-74
2022/12/27 03:07:30;;;;;;;3.95;0.80;;;6.20;99.90;;;;;;5031924;28;20288;-74
2022/12/27 03:16:54;;;;;;;8.00;1.00;;;6.30;99.90;;;;;;5051597;28;20199;-75
2022/12/27 03:27:44;;;;;;;2.20;0.70;;;6.50;99.90;;;;;;5049987;28;20214;-74
2022/12/27 03:33:13;;;;;;;3.28;0.90;;;6.60;99.90;;;;;;5014874;28;20185;-74
2022/12/27 03:38:01;;;;;;;2.75;0.80;;;6.70;99.90;;;;;;5031883;28;20208;-75
2022/12/27 03:38:42;;;;;;;2.78;0.80;;;6.70;99.90;;;;;;5032834;28;20679;-75
2022/12/27 03:44:46;;;;;;;1.90;1.00;;;6.80;99.90;;;;;;5049684;28;20602;-74
2022/12/27 03:47:28;;;;;;;3.00;0.70;;;6.80;99.90;;;;;;5049644;28;20173;-74
2022/12/27 03:50:28;;;;;;;4.75;1.38;;;6.80;99.90;;;;;;5049584;28;20172;-74
2022/12/27 03:52:58;;;;;;;2.53;0.80;;;6.80;99.90;;;;;;5049163;28;20574;-74
2022/12/27 03:55:24;;;;;;;3.22;0.80;;;6.80;99.90;;;;;;5031746;28;20227;-75
2022/12/27 03:57:51;;;;;;;8.27;0.98;;;6.90;99.90;;;;;;5031797;28;20192;-75
2022/12/27 04:00:17;;;;;;;5.43;1.33;;;6.90;99.90;;;;;;5032710;28;20234;-75
2022/12/27 04:02:43;;;;;;;3.63;0.90;;;6.90;99.90;;;;;;5053132;28;20169;-74
2022/12/27 04:05:10;;;;;;;2.40;0.93;;;6.90;99.90;;;;;;5049667;28;20678;-75
2022/12/27 04:07:35;;;;;;;4.43;1.00;;;6.90;99.90;;;;;;5050749;28;20162;-75
2022/12/27 04:34:43;;;;;;;1.73;0.70;;;6.90;99.90;;;;;;5037620;28;20276;-75
2022/12/27 04:37:15;;;;;;;1.98;0.73;;;6.90;99.90;;;;;;5036257;28;20744;-75
2022/12/27 04:54:55;;;;;;;3.65;0.80;;;6.90;99.90;;;;;;5038257;28;20580;-75
2022/12/27 04:56:16;;;;;;;3.90;0.95;;;6.90;99.90;;;;;;5030429;28;20197;-75
2022/12/27 05:02:02;;;;;;;6.07;1.20;;;6.90;99.90;;;;;;5030622;28;20537;-75
2022/12/27 05:04:12;;;;;;;3.47;1.27;;;6.90;99.90;;;;;;5053015;28;20189;-75
2022/12/27 05:06:38;;;;;;;7.27;1.00;;;6.90;99.90;;;;;;5036131;28;20184;-75
2022/12/27 05:14:26;;;;;;;2.53;1.00;;;7.00;99.90;;;;;;5036399;28;20291;-75
2022/12/27 05:16:52;;;;;;;2.80;1.50;;;7.00;99.90;;;;;;5056901;28;20283;-75
2022/12/27 05:19:18;;;;;;;2.70;0.90;;;7.00;99.90;;;;;;5054402;28;20570;-75
2022/12/27 05:27:14;;;;;;;2.25;0.75;;;7.00;99.90;;;;;;5036947;28;20241;-75
2022/12/27 05:29:39;;;;;;;2.00;1.13;;;7.10;99.90;;;;;;5054620;28;20184;-75
2022/12/27 05:32:05;;;;;;;6.53;1.40;;;7.10;99.90;;;;;;5036265;28;20177;-75
2022/12/27 05:34:30;;;;;;;2.20;0.70;;;7.00;99.90;;;;;;5019108;28;20196;-75
2022/12/27 05:36:56;;;;;;;2.20;0.80;;;7.00;99.90;;;;;;5036450;28;20216;-75
2022/12/27 05:39:22;;;;;;;6.73;0.90;;;7.00;99.90;;;;;;5054049;28;20168;-75
2022/12/27 05:41:48;;;;;;;4.43;0.87;;;7.00;99.90;;;;;;5019531;28;20161;-75
2022/12/27 05:44:14;;;;;;;2.65;0.90;;;7.00;99.90;;;;;;5053993;28;20181;-75
2022/12/27 05:46:39;;;;;;;2.70;0.77;;;7.00;99.90;;;;;;5036975;28;20227;-75
2022/12/27 05:49:05;;;;;;;4.63;0.97;;;7.00;99.90;;;;;;5020594;28;20184;-75
2022/12/27 05:51:31;;;;;;;3.87;0.90;;;7.00;99.90;;;;;;5036175;28;20227;-75
2022/12/27 05:53:57;;;;;;;3.60;0.90;;;7.00;99.90;;;;;;5019715;28;20695;-75
2022/12/27 05:56:23;;;;;;;2.03;0.80;;;7.00;99.90;;;;;;5036902;28;20287;-75
2022/12/27 05:58:52;;;;;;;2.28;0.70;;;7.00;99.90;;;;;;5054461;28;20250;-75
2022/12/27 06:01:18;;;;;;;2.75;0.88;;;7.00;99.90;;;;;;5051429;28;20216;-73
2022/12/27 06:03:44;;;;;;;4.20;0.88;;;7.00;99.90;;;;;;5026850;28;20247;-74
2022/12/27 06:06:11;;;;;;;1.88;1.08;;;7.00;99.90;;;;;;5017966;28;20235;-74
2022/12/27 06:08:37;;;;;;;2.25;1.00;;;7.00;99.90;;;;;;5034938;28;20204;-74
2022/12/27 06:11:08;;;;;;;3.53;1.00;;;7.00;99.90;;;;;;5034433;28;20177;-73
2022/12/27 06:13:34;;;;;;;2.88;0.80;;;7.00;99.90;;;;;;5006905;28;20294;-73
2022/12/27 06:16:01;;;;;;;4.07;0.90;;;7.00;99.90;;;;;;5031102;28;20184;-74
2022/12/27 06:18:29;;;;;;;3.33;1.10;;;7.00;99.90;;;;;;5013726;28;20252;-73
2022/12/27 06:21:20;;;;;;;2.30;0.70;;;7.00;99.90;;;;;;5013780;28;20227;-73
2022/12/27 06:23:46;;;;;;;5.70;1.08;;;6.90;99.90;;;;;;4996731;28;20236;-74
2022/12/27 06:26:18;;;;;;;1.90;0.95;;;6.90;99.90;;;;;;5013192;28;20216;-74
2022/12/27 06:28:44;;;;;;;3.88;0.75;;;6.90;99.90;;;;;;5030888;28;20248;-74
2022/12/27 06:31:10;;;;;;;2.10;0.80;;;6.90;99.90;;;;;;5013889;28;20262;-73
2022/12/27 06:33:36;;;;;;;3.93;0.93;;;6.90;99.90;;;;;;5012729;28;20189;-73
2022/12/27 06:36:07;;;;;;;8.07;1.10;;;6.90;99.90;;;;;;5030571;28;20579;-73
2022/12/27 06:38:32;;;;;;;2.35;0.90;;;6.80;99.90;;;;;;5012542;28;20240;-72
2022/12/27 06:41:07;;;;;;;2.27;0.90;;;6.80;99.90;;;;;;5013042;28;20197;-73
2022/12/27 06:43:34;;;;;;;5.97;1.00;;;6.90;99.90;;;;;;5012729;28;20197;-74
2022/12/27 06:46:02;;;;;;;3.67;1.13;;;6.80;99.90;;;;;;5012983;28;20206;-73
2022/12/27 06:48:28;;;;;;;3.03;0.90;;;6.80;99.90;;;;;;5012689;28;20227;-73
2022/12/27 06:50:54;;;;;;;3.17;1.00;;;6.80;99.90;;;;;;5030685;28;20578;-74
2022/12/27 06:53:20;;;;;;;3.03;0.90;;;6.80;99.90;;;;;;5020777;28;20207;-74
2022/12/27 06:55:46;;;;;;;4.30;1.10;;;6.80;99.90;;;;;;5042279;28;20168;-73
2022/12/27 06:58:12;;;;;;;5.45;1.17;;;6.80;99.90;;;;;;5052494;28;20200;-75
2022/12/27 07:00:39;;;;;;;2.00;0.70;;;6.80;99.90;;;;;;5057823;28;20170;-76
2022/12/27 07:03:05;;;;;;;5.15;0.98;;;6.80;99.90;;;;;;5024192;28;20572;-75
2022/12/27 07:05:33;;;;;;;2.90;0.80;;;6.90;99.90;;;;;;5052381;28;20695;-76
2022/12/27 07:08:01;;;;;;;4.75;0.90;;;6.90;99.90;;;;;;5057216;28;20180;-76
2022/12/27 07:10:27;;;;;;;3.13;0.80;;;6.90;99.90;;;;;;5053102;28;20184;-75
2022/12/27 07:12:52;;;;;;;2.70;1.00;;;6.90;99.90;;;;;;5032708;28;20590;-75
2022/12/27 07:15:18;;;;;;;2.50;0.80;;;6.90;99.90;;;;;;5036141;28;20173;-75
2022/12/27 07:17:44;;;;;;;5.50;0.90;;;6.90;99.90;;;;;;5052555;28;20196;-75
2022/12/27 07:20:10;;;;;;;5.77;0.90;;;6.90;99.90;;;;;;5015290;28;20177;-74
2022/12/27 07:22:35;;;;;;;5.35;0.90;;;6.90;99.90;;;;;;5032177;28;20219;-75
2022/12/27 07:25:01;;;;;;;2.67;1.00;;;6.90;99.90;;;;;;5032049;28;20571;-75
2022/12/27 07:27:27;;;;;;;3.50;1.03;;;7.00;99.90;;;;;;5032276;28;20645;-74
2022/12/27 07:29:53;;;;;;;4.93;1.23;;;7.00;99.90;;;;;;5031474;28;20660;-74
2022/12/27 07:32:18;;;;;;;2.30;1.00;;;7.00;99.90;;;;;;5049725;28;20173;-75
2022/12/27 07:34:44;;;;;;;6.80;2.10;;;7.10;99.90;;;;;;5015410;28;20200;-75
2022/12/27 07:37:10;;;;;;;5.33;0.90;;;7.20;99.90;;;;;;5049586;28;20691;-74
2022/12/27 07:39:35;;;;;;;3.20;1.20;;;7.30;99.90;;;;;;5032217;28;20169;-74
2022/12/27 07:42:01;;;;;;;3.40;1.08;;;7.40;99.90;;;;;;5049371;28;20521;-75
2022/12/27 07:44:34;;;;;;;3.28;0.77;;;7.40;99.90;;;;;;5015198;28;20189;-74
2022/12/27 07:47:00;;;;;;;10.70;1.27;;;7.40;99.90;;;;;;5050692;28;20234;-75
2022/12/27 07:49:27;;;;;;;4.18;0.90;;;7.40;99.90;;;;;;4998669;28;20275;-74
2022/12/27 07:51:52;;;;;;;5.43;0.98;;;7.40;99.90;;;;;;5031413;28;20181;-74
2022/12/27 07:54:18;;;;;;;5.47;0.80;;;7.30;99.90;;;;;;5031443;28;20990;-74
2022/12/27 07:56:44;;;;;;;4.80;0.87;;;7.30;99.90;;;;;;5049371;28;20671;-74
2022/12/27 07:59:11;;;;;;;4.97;1.00;;;7.30;99.90;;;;;;4999326;28;20527;-75
2022/12/27 08:04:22;;;;;;;2.75;0.90;;;7.20;99.90;;;;;;5049747;28;20189;-75
2022/12/27 08:06:49;;;;;;;3.08;0.80;;;7.20;99.90;;;;;;5032827;28;20184;-75
2022/12/27 08:09:19;;;;;;;3.73;0.70;;;7.20;99.90;;;;;;5049723;28;20669;-75
2022/12/27 08:11:45;;;;;;;2.25;0.90;;;7.20;99.90;;;;;;5019182;28;20583;-75
2022/12/27 08:14:10;;;;;;;2.93;0.80;;;7.20;99.90;;;;;;5017397;28;20196;-75
2022/12/27 08:16:36;;;;;;;2.80;0.93;;;7.20;99.90;;;;;;5058826;28;20203;-76
2022/12/27 08:19:02;;;;;;;2.23;0.80;;;7.20;99.90;;;;;;5056976;28;20304;-75
2022/12/27 08:21:27;;;;;;;1.40;0.80;;;7.20;99.90;;;;;;4995413;28;20204;-75
2022/12/27 08:23:53;;;;;;;3.17;0.80;;;7.20;99.90;;;;;;5014655;28;20240;-76
2022/12/27 08:26:19;;;;;;;3.93;1.03;;;7.20;99.90;;;;;;5000723;28;20587;-76
2022/12/27 08:28:45;;;;;;;2.97;1.10;;;7.20;99.90;;;;;;5035285;28;20172;-75
2022/12/27 08:31:12;;;;;;;4.30;1.30;;;7.20;99.90;;;;;;5031209;28;20583;-75
2022/12/27 08:33:40;;;;;;;3.00;1.30;;;7.20;99.90;;;;;;5048801;28;20611;-74
2022/12/27 08:36:08;;;;;;;3.67;0.85;;;7.30;99.90;;;;;;5048753;28;20255;-74
2022/12/27 08:38:34;;;;;;;2.38;0.82;;;7.20;99.90;;;;;;5052694;28;20205;-74
2022/12/27 08:41:00;;;;;;;3.27;1.00;;;7.30;99.90;;;;;;5035873;28;20631;-74
2022/12/27 08:43:28;;;;;;;1.92;0.80;;;7.30;99.90;;;;;;5035203;28;20821;-75
2022/12/27 08:46:01;;;;;;;2.15;0.90;;;7.30;99.90;;;;;;5034963;28;20207;-76
2022/12/27 08:48:27;;;;;;;2.75;1.02;;;7.30;99.90;;;;;;5035917;28;20212;-76
2022/12/27 08:50:53;;;;;;;4.78;1.00;;;7.30;99.90;;;;;;5021532;28;20177;-76
2022/12/27 08:53:19;;;;;;;4.45;0.82;;;7.30;99.90;;;;;;5060325;28;20404;-75
2022/12/27 08:55:44;;;;;;;2.60;1.07;;;7.40;99.90;;;;;;5028402;28;20173;-75
2022/12/27 08:58:11;;;;;;;3.50;1.07;;;7.40;99.90;;;;;;5039128;28;20669;-75
2022/12/27 09:00:36;;;;;;;5.65;1.55;;;7.40;99.90;;;;;;5038091;28;20192;-75
2022/12/27 09:03:02;;;;;;;3.40;1.10;;;7.40;99.90;;;;;;5054389;28;20180;-75
2022/12/27 09:05:28;;;;;;;4.15;1.10;;;7.50;99.90;;;;;;5054981;28;20195;-75
2022/12/27 09:07:54;;;;;;;4.23;1.67;;;7.50;99.90;;;;;;5055211;28;20259;-75
2022/12/27 09:10:22;;;;;;;5.17;1.40;;;7.50;99.90;;;;;;5054814;28;20235;-76
2022/12/27 09:12:47;;;;;;;5.75;1.23;;;7.60;99.90;;;;;;5019993;28;20272;-75
2022/12/27 09:15:14;;;;;;;5.10;1.30;;;7.60;99.90;;;;;;5053616;28;20177;-75
2022/12/27 09:17:40;;;;;;;3.93;1.30;;;7.60;99.90;;;;;;5054746;28;20660;-75
2022/12/27 09:20:07;;;;;;;3.57;1.00;;;7.60;99.90;;;;;;5054081;28;20170;-74
2022/12/27 09:22:33;;;;;;;2.20;0.93;;;7.70;99.90;;;;;;5035901;28;20622;-75
2022/12/27 09:24:58;;;;;;;7.30;1.23;;;7.70;99.90;;;;;;5053294;28;20881;-74
2022/12/27 09:27:24;;;;;;;3.07;0.90;;;7.80;99.90;;;;;;5053821;28;20208;-74
2022/12/27 09:29:50;;;;;;;3.03;0.90;;;7.80;99.90;;;;;;5053512;28;20555;-74
2022/12/27 09:32:15;;;;;;;4.20;0.90;;;7.90;99.90;;;;;;5035979;28;20679;-75
2022/12/27 09:34:41;;;;;;;3.83;1.10;;;7.90;99.90;;;;;;5053326;28;20203;-74
2022/12/27 09:37:07;;;;;;;5.50;1.40;;;8.00;99.90;;;;;;5026063;28;20193;-74
2022/12/27 09:39:32;;;;;;;2.73;1.10;;;8.00;99.90;;;;;;5036267;28;20173;-74
2022/12/27 09:42:21;;;;;;;2.53;1.03;;;8.10;99.90;;;;;;5018739;28;20796;-74
2022/12/27 09:44:54;;;;;;;3.60;1.10;;;8.10;99.90;;;;;;5053107;28;20251;-74
2022/12/27 09:47:25;;;;;;;4.40;1.25;;;8.20;99.90;;;;;;5035184;28;20192;-74
2022/12/27 09:49:56;;;;;;;7.03;1.20;;;8.30;99.90;;;;;;5052165;28;20180;-74
2022/12/27 09:52:40;;;;;;;4.45;1.13;;;8.40;99.90;;;;;;5052623;28;20565;-74
2022/12/27 09:55:30;;;;;;;12.57;1.20;;;8.40;99.90;;;;;;5052729;28;20201;-74
2022/12/27 09:58:22;;;;;;;5.13;1.10;;;8.50;99.90;;;;;;5034860;28;20204;-74
2022/12/27 10:00:51;;;;;;;2.83;1.23;;;8.60;99.90;;;;;;5052323;28;20188;-74
2022/12/27 10:03:24;;;;;;;7.65;1.02;;;8.70;99.90;;;;;;5017596;28;20189;-75
2022/12/27 10:06:15;;;;;;;4.05;0.90;;;8.70;99.90;;;;;;5053045;28;20172;-74
2022/12/27 10:09:00;;;;;;;5.53;0.85;;;8.80;99.90;;;;;;5034886;28;20222;-74
2022/12/27 10:11:44;;;;;;;2.88;0.90;;;8.80;99.90;;;;;;5034425;28;20318;-73
2022/12/27 10:14:37;;;;;;;3.78;0.90;;;8.90;99.90;;;;;;5020243;28;20230;-72
2022/12/27 10:17:20;;;;;;;3.33;1.38;;;9.00;99.90;;;;;;5034875;28;20205;-72
2022/12/27 10:19:57;;;;;;;3.72;0.82;;;9.10;99.90;;;;;;5018154;28;20176;-73
2022/12/27 10:22:37;;;;;;;5.18;1.15;;;9.10;99.90;;;;;;5034863;28;20199;-75
2022/12/27 10:25:11;;;;;;;2.28;0.90;;;9.20;99.90;;;;;;5017466;28;20235;-73
2022/12/27 10:27:38;;;;;;;2.75;0.90;;;9.20;99.90;;;;;;5034415;28;20243;-73
2022/12/27 10:30:19;;;;;;;3.15;0.88;;;9.30;99.90;;;;;;5052303;28;20177;-73
2022/12/27 10:32:45;;;;;;;2.60;1.02;;;9.30;99.90;;;;;;5034543;28;20177;-74
2022/12/27 10:35:17;;;;;;;3.72;1.13;;;9.40;99.90;;;;;;5013585;28;20213;-74
2022/12/27 10:37:44;;;;;;;3.10;1.15;;;9.40;99.90;;;;;;5032712;28;20232;-74
2022/12/27 10:40:36;;;;;;;5.60;0.90;;;9.50;99.90;;;;;;5014427;28;20166;-74
2022/12/27 10:43:05;;;;;;;2.95;0.90;;;9.60;99.90;;;;;;5014669;28;20260;-75
2022/12/27 10:45:41;;;;;;;5.70;2.35;;;9.60;99.90;;;;;;5014663;28;20249;-75
2022/12/27 10:48:13;;;;;;;8.50;2.83;;;9.70;99.90;;;;;;5016648;28;20668;-75
2022/12/27 10:50:47;;;;;;;3.75;1.88;;;9.70;99.90;;;;;;5014995;28;20177;-73
2022/12/27 10:53:40;;;;;;;3.25;1.70;;;9.80;99.90;;;;;;5029506;28;20207;-74
2022/12/27 10:56:10;;;;;;;5.10;1.55;;;9.80;99.90;;;;;;5036518;28;20203;-73
2022/12/27 10:58:40;;;;;;;4.32;1.38;;;9.90;99.90;;;;;;5013932;28;20204;-74
2022/12/27 11:01:20;;;;;;;4.65;1.88;;;10.00;99.90;;;;;;5039967;28;20177;-75
2022/12/27 11:03:46;;;;;;;5.47;1.02;;;10.00;99.90;;;;;;5033494;28;20199;-74
2022/12/27 11:06:25;;;;;;;7.07;1.27;;;10.10;99.90;;;;;;5052611;28;20164;-75
2022/12/27 11:08:52;;;;;;;5.65;1.00;;;10.10;99.90;;;;;;5035660;28;20570;-75
2022/12/27 11:11:23;;;;;;;2.03;0.90;;;10.20;99.90;;;;;;5054433;28;20169;-74
2022/12/27 11:13:50;;;;;;;2.53;0.90;;;10.40;99.90;;;;;;5017309;28;20212;-75
2022/12/27 11:16:29;;;;;;;4.25;0.90;;;10.50;99.90;;;;;;5052244;28;20196;-74
2022/12/27 11:18:57;;;;;;;3.35;0.85;;;10.60;99.90;;;;;;5051504;28;20215;-74
2022/12/27 11:21:23;;;;;;;3.65;1.00;;;10.80;99.90;;;;;;5051875;28;20219;-74
2022/12/27 11:23:53;;;;;;;3.28;0.80;;;11.00;99.90;;;;;;5031054;28;20208;-74
2022/12/27 11:26:24;;;;;;;3.10;1.00;;;11.10;99.90;;;;;;5071660;28;20264;-73
2022/12/27 11:28:53;;;;;;;4.43;0.98;;;11.20;99.90;;;;;;5054672;28;20176;-73
2022/12/27 11:31:35;;;;;;;5.55;0.90;;;11.30;99.90;;;;;;5071175;28;20551;-73
2022/12/27 11:34:17;;;;;;;3.15;0.80;;;11.40;99.90;;;;;;5070935;28;20237;-73
2022/12/27 11:36:46;;;;;;;9.85;1.60;;;11.50;99.90;;;;;;5052927;28;20173;-73
2022/12/27 11:39:36;;;;;;;2.90;1.00;;;11.60;99.90;;;;;;5066372;28;20220;-73
2022/12/27 11:42:24;;;;;;;4.28;1.45;;;11.60;99.90;;;;;;5033186;28;20185;-74
2022/12/27 11:45:18;;;;;;;5.17;2.60;;;11.70;99.90;;;;;;5032501;28;20358;-73
2022/12/27 11:48:00;;;;;;;7.60;3.58;;;11.90;99.90;;;;;;5050986;28;20664;-75
2022/12/27 11:50:26;;;;;;;5.03;2.85;;;12.00;99.90;;;;;;5051007;28;20165;-75
2022/12/27 11:53:18;;;;;;;5.57;1.40;;;12.00;99.90;;;;;;5032642;28;20184;-74
2022/12/27 11:56:26;;;;;;;3.77;1.30;;;12.10;99.90;;;;;;5031375;28;20177;-74
2022/12/27 11:59:13;;;;;;;5.65;0.90;;;12.20;99.90;;;;;;5020179;28;20604;-74
2022/12/27 12:01:57;;;;;;;5.47;1.42;;;12.20;99.90;;;;;;5052245;28;20182;-73
2022/12/27 12:04:41;;;;;;;4.00;0.90;;;12.20;99.90;;;;;;5070786;28;20241;-73
2022/12/27 12:07:27;;;;;;;2.17;0.73;;;12.30;99.90;;;;;;5055258;28;20172;-74
2022/12/27 12:10:31;;;;;;;3.10;0.80;;;12.30;99.90;;;;;;5052381;28;20578;-74
2022/12/27 12:13:02;;;;;;;3.17;0.90;;;12.30;99.90;;;;;;5051628;28;20591;-74
2022/12/27 12:16:06;;;;;;;7.88;0.77;;;12.40;99.90;;;;;;5070438;28;20594;-74
2022/12/27 12:19:13;;;;;;;2.20;0.80;;;12.40;99.90;;;;;;5038478;28;20200;-74
2022/12/27 12:22:12;;;;;;;4.80;0.73;;;12.50;99.90;;;;;;5013855;28;20618;-73
2022/12/27 12:24:46;;;;;;;2.20;0.70;;;12.60;99.90;;;;;;5045472;28;20197;-74
2022/12/27 12:27:34;;;;;;;4.67;0.80;;;12.70;99.90;;;;;;5033097;28;20587;-73
2022/12/27 12:30:12;;;;;;;3.65;1.33;;;12.70;99.90;;;;;;5050719;28;20738;-74
2022/12/27 12:32:58;;;;;;;2.43;0.80;;;12.70;99.90;;;;;;5051081;28;20194;-73
2022/12/27 12:35:31;;;;;;;2.63;0.70;;;12.80;99.90;;;;;;5035545;28;20583;-74
2022/12/27 12:38:03;;;;;;;2.20;0.70;;;12.80;99.90;;;;;;5052215;28;20650;-76
2022/12/27 12:40:35;;;;;;;2.43;1.03;;;12.80;99.90;;;;;;5034423;28;20600;-74
2022/12/27 12:43:17;;;;;;;2.37;1.00;;;12.90;99.90;;;;;;5052352;28;20631;-75
2022/12/27 12:46:02;;;;;;;3.35;0.80;;;12.90;99.90;;;;;;5033243;28;21219;-74
2022/12/27 12:48:39;;;;;;;5.57;0.80;;;12.90;99.90;;;;;;5050947;28;20223;-74
2022/12/27 12:51:42;;;;;;;2.10;0.60;;;12.90;99.90;;;;;;5016344;28;20575;-75
2022/12/27 12:54:46;;;;;;;2.13;0.70;;;12.90;99.90;;;;;;5050172;28;20627;-74
2022/12/27 12:57:37;;;;;;;5.13;0.90;;;12.80;99.90;;;;;;5050134;28;20619;-75
2022/12/27 13:00:45;;;;;;;5.22;0.80;;;12.80;99.90;;;;;;5050610;28;20185;-75
2022/12/27 13:03:20;;;;;;;2.03;0.87;;;12.80;99.90;;;;;;5029554;28;20579;-74
2022/12/27 13:05:55;;;;;;;2.80;1.03;;;12.80;99.90;;;;;;5031137;28;20602;-74
2022/12/27 13:08:48;;;;;;;2.50;1.00;;;12.70;99.90;;;;;;5019208;28;20590;-74
2022/12/27 13:11:38;;;;;;;4.63;1.40;;;12.80;99.90;;;;;;5033519;28;20231;-74
2022/12/27 13:14:20;;;;;;;6.32;1.30;;;12.80;99.90;;;;;;5050090;28;20212;-75
2022/12/27 13:16:57;;;;;;;4.83;1.00;;;12.80;99.90;;;;;;5051683;28;20555;-73
2022/12/27 13:19:32;;;;;;;3.77;0.90;;;12.90;99.90;;;;;;5016148;28;20629;-74
2022/12/27 13:22:15;;;;;;;5.60;1.00;;;12.90;99.90;;;;;;5052524;28;20563;-75
2022/12/27 13:25:00;;;;;;;7.97;0.97;;;13.00;99.90;;;;;;5035204;28;20629;-74
2022/12/27 13:27:26;;;;;;;4.97;1.87;;;13.00;99.90;;;;;;5052738;28;20630;-74
2022/12/27 13:30:04;;;;;;;7.73;2.93;;;13.00;99.90;;;;;;5041822;28;21174;-74
2022/12/27 13:32:47;;;;;;;14.60;3.90;;;13.00;99.90;;;;;;5003262;28;20180;-74
2022/12/27 13:35:48;;;;;;;5.20;1.67;;;13.10;99.90;;;;;;5036246;28;20602;-74
2022/12/27 13:38:43;;;;;;;5.88;1.20;;;13.00;99.90;;;;;;5054142;28;20630;-74
2022/12/27 13:41:21;;;;;;;4.90;2.40;;;13.00;99.90;;;;;;5018112;28;20185;-73
2022/12/27 13:44:27;;;;;;;6.77;2.93;;;13.00;99.90;;;;;;5035391;28;20657;-73
2022/12/27 13:47:11;;;;;;;3.90;1.77;;;13.00;99.90;;;;;;5018664;28;20624;-74
2022/12/27 13:49:45;;;;;;;3.90;1.20;;;12.90;99.90;;;;;;5053711;28;20582;-73
2022/12/27 13:52:27;;;;;;;2.00;0.80;;;12.90;99.90;;;;;;5052082;28;20165;-73
2022/12/27 13:55:01;;;;;;;4.00;1.02;;;12.90;99.90;;;;;;5034875;28;20213;-72
2022/12/27 13:57:43;;;;;;;3.50;1.00;;;12.80;99.90;;;;;;5052678;28;20845;-72
2022/12/27 14:00:22;;;;;;;2.60;1.13;;;12.80;99.90;;;;;;5035527;28;20592;-72
2022/12/27 14:03:13;;;;;;;1.98;0.80;;;12.70;99.90;;;;;;5032294;28;20212;-74
2022/12/27 14:06:16;;;;;;;6.25;1.10;;;12.70;99.90;;;;;;5015604;28;20223;-74
2022/12/27 14:08:57;;;;;;;2.20;0.80;;;12.70;99.90;;;;;;5015364;28;20189;-75
2022/12/27 14:11:32;;;;;;;3.55;1.10;;;12.70;99.90;;;;;;5015184;28;20185;-74
2022/12/27 14:13:59;;;;;;;5.63;0.90;;;12.70;99.90;;;;;;5032980;28;20189;-74
2022/12/27 14:16:37;;;;;;;2.08;0.80;;;12.60;99.90;;;;;;5015229;28;20227;-74
2022/12/27 14:19:15;;;;;;;2.55;0.70;;;12.60;99.90;;;;;;5032986;28;20177;-75
2022/12/27 14:22:04;;;;;;;5.68;1.27;;;12.50;99.90;;;;;;5032585;28;20166;-74
2022/12/27 14:25:00;;;;;;;2.60;0.98;;;12.50;99.90;;;;;;5033019;28;20713;-74
2022/12/27 14:27:51;;;;;;;2.90;0.80;;;12.50;99.90;;;;;;5033890;28;20201;-74
2022/12/27 14:31:00;;;;;;;3.03;1.10;;;12.40;99.90;;;;;;5032899;28;20223;-74
2022/12/27 14:33:45;;;;;;;3.85;0.70;;;12.40;99.90;;;;;;5014544;28;20248;-75
2022/12/27 14:36:34;;;;;;;2.00;0.73;;;12.40;99.90;;;;;;5034344;28;20170;-74
2022/12/27 14:39:18;;;;;;;1.77;0.73;;;12.40;99.90;;;;;;5014933;28;20617;-74
2022/12/27 14:42:31;;;;;;;2.85;0.98;;;12.40;99.90;;;;;;5031914;28;20561;-74
2022/12/27 14:45:15;;;;;;;3.72;0.90;;;12.30;99.90;;;;;;5032162;28;20212;-75
2022/12/27 14:48:07;;;;;;;3.10;1.00;;;12.30;99.90;;;;;;5032073;28;20165;-75
2022/12/27 14:51:02;;;;;;;4.10;0.75;;;12.20;99.90;;;;;;5032298;28;20166;-75
2022/12/27 14:53:55;;;;;;;4.07;1.10;;;12.20;99.90;;;;;;5013039;28;20312;-74
2022/12/27 14:56:30;;;;;;;6.32;1.10;;;12.10;99.90;;;;;;5014905;28;20526;-74
2022/12/27 14:59:15;;;;;;;2.30;0.98;;;12.10;99.90;;;;;;5033735;28;20229;-74
2022/12/27 15:02:06;;;;;;;3.50;1.00;;;12.10;99.90;;;;;;5024952;28;20234;-74
2022/12/27 15:04:48;;;;;;;4.10;1.13;;;12.00;99.90;;;;;;5033055;28;20188;-74
2022/12/27 15:07:39;;;;;;;1.77;0.97;;;12.00;99.90;;;;;;5035174;28;20540;-74